sensor_id;sensor_type;location;lat;lon;timestamp;pressure;altitude;pressure_sealevel;temperature;humidity
23733;BME280;12047;53.450;-2.286;2023-03-02T00:04:54;102580.28;;;12.41;100.00
23733;BME280;12047;53.450;-2.286;2023-03-02T00:09:55;102574.50;;;11.68;100.00
23733;BME280;12047;53.450;-2.286;2023-03-02T00:14:57;102568.19;;;11.15;100.00
23733;BME280;12047;53.450;-2.286;2023-03-02T00:19:57;102560.94;;;11.72;100.00
23733;BME280;12047;53.450;-2.286;2023-03-02T00:25:12;102562.38;;;11.78;100.00
23733;BME280;12047;53.450;-2.286;2023-03-02T00:30:14;102555.94;;;11.27;100.00
23733;BME280;12047;53.450;-2.286;2023-03-02T00:35:14;102553.13;;;11.56;100.00
23733;BME280;12047;53.450;-2.286;2023-03-02T00:40:15;102546.16;;;11.68;100.00
23733;BME280;12047;53.450;-2.286;2023-03-02T00:45:16;102564.63;;;10.87;100.00
23733;BME280;12047;53.450;-2.286;2023-03-02T00:50:18;102561.13;;;10.87;100.00
23733;BME280;12047;53.450;-2.286;2023-03-02T00:55:19;102558.88;;;11.22;100.00
23733;BME280;12047;53.450;-2.286;2023-03-02T01:00:21;102568.94;;;11.31;100.00
23733;BME280;12047;53.450;-2.286;2023-03-02T01:05:23;102566.03;;;11.07;100.00
23733;BME280;12047;53.450;-2.286;2023-03-02T01:10:23;102574.91;;;11.35;100.00
23733;BME280;12047;53.450;-2.286;2023-03-02T01:15:24;102576.31;;;11.26;100.00
23733;BME280;12047;53.450;-2.286;2023-03-02T01:20:25;102573.84;;;11.64;100.00
23733;BME280;12047;53.450;-2.286;2023-03-02T01:25:26;102563.44;;;11.34;100.00
23733;BME280;12047;53.450;-2.286;2023-03-02T01:30:26;102550.06;;;11.36;100.00
23733;BME280;12047;53.450;-2.286;2023-03-02T01:35:27;102553.66;;;11.35;100.00
23733;BME280;12047;53.450;-2.286;2023-03-02T01:40:28;102540.00;;;10.85;100.00
23733;BME280;12047;53.450;-2.286;2023-03-02T01:45:47;102537.19;;;11.56;100.00
23733;BME280;12047;53.450;-2.286;2023-03-02T01:50:51;102535.22;;;11.46;100.00
23733;BME280;12047;53.450;-2.286;2023-03-02T01:55:52;102535.28;;;12.12;100.00
23733;BME280;12047;53.450;-2.286;2023-03-02T02:00:53;102534.22;;;12.40;100.00
23733;BME280;12047;53.450;-2.286;2023-03-02T02:06:05;102525.72;;;12.86;100.00
23733;BME280;12047;53.450;-2.286;2023-03-02T02:11:10;102531.47;;;12.42;100.00
23733;BME280;12047;53.450;-2.286;2023-03-02T02:16:11;102528.50;;;12.34;100.00
23733;BME280;12047;53.450;-2.286;2023-03-02T02:21:12;102518.50;;;12.50;100.00
23733;BME280;12047;53.450;-2.286;2023-03-02T02:31:32;102507.53;;;12.42;100.00
23733;BME280;12047;53.450;-2.286;2023-03-02T02:36:38;102490.19;;;12.23;100.00
23733;BME280;12047;53.450;-2.286;2023-03-02T02:41:40;102481.69;;;11.39;100.00
23733;BME280;12047;53.450;-2.286;2023-03-02T02:46:42;102476.44;;;11.65;100.00
23733;BME280;12047;53.450;-2.286;2023-03-02T02:51:43;102468.97;;;11.44;100.00
23733;BME280;12047;53.450;-2.286;2023-03-02T02:56:45;102465.31;;;11.72;100.00
23733;BME280;12047;53.450;-2.286;2023-03-02T03:01:48;102458.81;;;12.54;100.00
23733;BME280;12047;53.450;-2.286;2023-03-02T03:06:58;102468.38;;;11.66;100.00
23733;BME280;12047;53.450;-2.286;2023-03-02T03:12:23;102454.59;;;11.61;100.00
23733;BME280;12047;53.450;-2.286;2023-03-02T03:17:22;102455.44;;;12.01;100.00
23733;BME280;12047;53.450;-2.286;2023-03-02T03:22:23;102448.72;;;11.56;100.00
23733;BME280;12047;53.450;-2.286;2023-03-02T03:27:25;102448.44;;;11.07;100.00
23733;BME280;12047;53.450;-2.286;2023-03-02T03:32:25;102447.94;;;11.41;100.00
23733;BME280;12047;53.450;-2.286;2023-03-02T03:37:26;102447.53;;;11.47;100.00
23733;BME280;12047;53.450;-2.286;2023-03-02T03:42:27;102463.69;;;11.97;100.00
23733;BME280;12047;53.450;-2.286;2023-03-02T03:47:27;102456.59;;;11.97;100.00
23733;BME280;12047;53.450;-2.286;2023-03-02T03:52:28;102456.91;;;12.18;100.00
23733;BME280;12047;53.450;-2.286;2023-03-02T03:57:31;102468.47;;;11.79;100.00
23733;BME280;12047;53.450;-2.286;2023-03-02T04:02:32;102458.72;;;12.17;100.00
23733;BME280;12047;53.450;-2.286;2023-03-02T04:07:34;102462.78;;;12.23;100.00
23733;BME280;12047;53.450;-2.286;2023-03-02T04:12:37;102459.31;;;12.72;100.00
23733;BME280;12047;53.450;-2.286;2023-03-02T04:17:38;102472.88;;;12.92;100.00
23733;BME280;12047;53.450;-2.286;2023-03-02T04:22:39;102448.47;;;12.62;100.00
23733;BME280;12047;53.450;-2.286;2023-03-02T04:27:40;102464.03;;;12.17;100.00
23733;BME280;12047;53.450;-2.286;2023-03-02T04:32:40;102456.03;;;11.92;100.00
23733;BME280;12047;53.450;-2.286;2023-03-02T04:37:46;102455.19;;;11.52;100.00
23733;BME280;12047;53.450;-2.286;2023-03-02T04:42:47;102455.50;;;11.47;100.00
23733;BME280;12047;53.450;-2.286;2023-03-02T04:47:47;102463.28;;;10.68;100.00
23733;BME280;12047;53.450;-2.286;2023-03-02T04:52:48;102450.63;;;11.54;100.00
23733;BME280;12047;53.450;-2.286;2023-03-02T04:57:49;102457.91;;;11.38;100.00
23733;BME280;12047;53.450;-2.286;2023-03-02T05:02:50;102448.59;;;11.18;100.00
23733;BME280;12047;53.450;-2.286;2023-03-02T05:07:52;102457.97;;;11.63;100.00
23733;BME280;12047;53.450;-2.286;2023-03-02T05:12:52;102448.66;;;11.31;100.00
23733;BME280;12047;53.450;-2.286;2023-03-02T05:18:06;102456.59;;;11.84;100.00
23733;BME280;12047;53.450;-2.286;2023-03-02T05:23:09;102454.53;;;11.21;100.00
23733;BME280;12047;53.450;-2.286;2023-03-02T05:28:09;102448.00;;;11.27;100.00
23733;BME280;12047;53.450;-2.286;2023-03-02T05:33:10;102458.25;;;10.78;100.00
23733;BME280;12047;53.450;-2.286;2023-03-02T05:38:11;102460.91;;;11.19;100.00
23733;BME280;12047;53.450;-2.286;2023-03-02T05:43:15;102448.34;;;11.35;100.00
23733;BME280;12047;53.450;-2.286;2023-03-02T05:48:17;102444.78;;;11.22;100.00
23733;BME280;12047;53.450;-2.286;2023-03-02T05:53:18;102448.06;;;11.52;100.00
23733;BME280;12047;53.450;-2.286;2023-03-02T05:58:19;102451.38;;;11.02;100.00
23733;BME280;12047;53.450;-2.286;2023-03-02T06:03:20;102460.34;;;11.14;100.00
23733;BME280;12047;53.450;-2.286;2023-03-02T06:08:20;102464.81;;;11.13;100.00
23733;BME280;12047;53.450;-2.286;2023-03-02T06:13:21;102473.13;;;10.80;100.00
23733;BME280;12047;53.450;-2.286;2023-03-02T06:18:21;102467.97;;;11.06;100.00
23733;BME280;12047;53.450;-2.286;2023-03-02T06:23:24;102467.31;;;11.29;100.00
23733;BME280;12047;53.450;-2.286;2023-03-02T06:28:25;102471.94;;;11.13;100.00
23733;BME280;12047;53.450;-2.286;2023-03-02T06:33:25;102478.38;;;11.09;100.00
23733;BME280;12047;53.450;-2.286;2023-03-02T06:38:26;102469.78;;;11.72;100.00
23733;BME280;12047;53.450;-2.286;2023-03-02T06:43:27;102483.50;;;11.12;100.00
23733;BME280;12047;53.450;-2.286;2023-03-02T06:48:27;102481.03;;;11.63;100.00
23733;BME280;12047;53.450;-2.286;2023-03-02T06:53:28;102492.31;;;10.98;100.00
23733;BME280;12047;53.450;-2.286;2023-03-02T06:58:28;102500.13;;;11.82;100.00
23733;BME280;12047;53.450;-2.286;2023-03-02T07:03:29;102513.09;;;11.33;100.00
23733;BME280;12047;53.450;-2.286;2023-03-02T07:08:29;102508.50;;;11.49;100.00
23733;BME280;12047;53.450;-2.286;2023-03-02T07:13:30;102511.81;;;11.11;100.00
23733;BME280;12047;53.450;-2.286;2023-03-02T07:18:31;102511.50;;;11.16;100.00
23733;BME280;12047;53.450;-2.286;2023-03-02T07:23:31;102517.47;;;11.19;100.00
23733;BME280;12047;53.450;-2.286;2023-03-02T07:28:32;102526.41;;;11.45;100.00
23733;BME280;12047;53.450;-2.286;2023-03-02T07:33:34;102523.06;;;11.29;100.00
23733;BME280;12047;53.450;-2.286;2023-03-02T07:38:36;102527.38;;;11.98;100.00
23733;BME280;12047;53.450;-2.286;2023-03-02T07:43:39;102529.66;;;11.77;100.00
23733;BME280;12047;53.450;-2.286;2023-03-02T07:48:39;102531.06;;;11.96;100.00
23733;BME280;12047;53.450;-2.286;2023-03-02T07:53:40;102526.03;;;11.78;100.00
23733;BME280;12047;53.450;-2.286;2023-03-02T07:58:41;102528.31;;;11.97;100.00
23733;BME280;12047;53.450;-2.286;2023-03-02T08:03:41;102525.09;;;12.44;100.00
23733;BME280;12047;53.450;-2.286;2023-03-02T08:08:42;102532.00;;;11.82;100.00
23733;BME280;12047;53.450;-2.286;2023-03-02T08:13:44;102535.28;;;12.12;100.00
23733;BME280;12047;53.450;-2.286;2023-03-02T08:18:45;102536.88;;;11.88;100.00
23733;BME280;12047;53.450;-2.286;2023-03-02T08:23:46;102536.44;;;12.08;100.00
23733;BME280;12047;53.450;-2.286;2023-03-02T08:28:47;102535.03;;;12.15;100.00
23733;BME280;12047;53.450;-2.286;2023-03-02T08:33:47;102534.22;;;11.88;100.00
23733;BME280;12047;53.450;-2.286;2023-03-02T08:38:48;102536.34;;;12.73;100.00
23733;BME280;12047;53.450;-2.286;2023-03-02T08:43:49;102543.41;;;12.62;100.00
23733;BME280;12047;53.450;-2.286;2023-03-02T08:48:49;102538.06;;;12.62;100.00
23733;BME280;12047;53.450;-2.286;2023-03-02T08:53:52;102539.56;;;12.53;100.00
23733;BME280;12047;53.450;-2.286;2023-03-02T08:58:57;102537.22;;;11.83;100.00
23733;BME280;12047;53.450;-2.286;2023-03-02T09:03:58;102548.16;;;11.65;100.00
23733;BME280;12047;53.450;-2.286;2023-03-02T09:08:59;102552.22;;;11.84;100.00
23733;BME280;12047;53.450;-2.286;2023-03-02T09:14:01;102547.66;;;11.86;100.00
23733;BME280;12047;53.450;-2.286;2023-03-02T09:19:01;102549.94;;;12.05;100.00
23733;BME280;12047;53.450;-2.286;2023-03-02T09:24:02;102545.38;;;12.07;98.95
23733;BME280;12047;53.450;-2.286;2023-03-02T09:29:03;102549.03;;;11.92;99.49
23733;BME280;12047;53.450;-2.286;2023-03-02T09:34:04;102550.19;;;11.61;97.84
23733;BME280;12047;53.450;-2.286;2023-03-02T09:39:11;102550.31;;;11.99;97.20
23733;BME280;12047;53.450;-2.286;2023-03-02T09:44:33;102551.25;;;11.85;95.24
23733;BME280;12047;53.450;-2.286;2023-03-02T09:54:49;102561.66;;;11.88;91.00
23733;BME280;12047;53.450;-2.286;2023-03-02T09:59:56;102565.09;;;11.49;89.69
23733;BME280;12047;53.450;-2.286;2023-03-02T10:05:01;102570.78;;;11.57;89.25
23733;BME280;12047;53.450;-2.286;2023-03-02T10:15:16;102565.22;;;12.14;87.28
23733;BME280;12047;53.450;-2.286;2023-03-02T10:20:52;102565.75;;;11.53;88.10
23733;BME280;12047;53.450;-2.286;2023-03-02T10:26:19;102561.84;;;12.12;87.02
23733;BME280;12047;53.450;-2.286;2023-03-02T10:31:30;102572.50;;;11.71;87.18
23733;BME280;12047;53.450;-2.286;2023-03-02T10:36:37;102561.63;;;12.15;85.03
23733;BME280;12047;53.450;-2.286;2023-03-02T10:41:44;102559.53;;;12.33;84.83
23733;BME280;12047;53.450;-2.286;2023-03-02T10:46:51;102567.88;;;12.14;85.72
23733;BME280;12047;53.450;-2.286;2023-03-02T10:52:01;102572.66;;;11.55;85.92
23733;BME280;12047;53.450;-2.286;2023-03-02T10:57:19;102579.09;;;12.32;85.87
23733;BME280;12047;53.450;-2.286;2023-03-02T11:02:25;102574.75;;;12.31;87.56
23733;BME280;12047;53.450;-2.286;2023-03-02T11:07:27;102569.44;;;12.56;84.95
23733;BME280;12047;53.450;-2.286;2023-03-02T11:12:29;102574.19;;;12.39;88.55
23733;BME280;12047;53.450;-2.286;2023-03-02T11:17:33;102588.78;;;12.33;89.37
23733;BME280;12047;53.450;-2.286;2023-03-02T11:23:02;102581.91;;;12.56;88.87
23733;BME280;12047;53.450;-2.286;2023-03-02T11:28:14;102576.09;;;12.24;88.55
23733;BME280;12047;53.450;-2.286;2023-03-02T11:33:23;102575.25;;;13.12;88.48
23733;BME280;12047;53.450;-2.286;2023-03-02T11:38:32;102573.59;;;12.73;87.50
23733;BME280;12047;53.450;-2.286;2023-03-02T11:43:36;102574.72;;;11.79;85.57
23733;BME280;12047;53.450;-2.286;2023-03-02T11:48:44;102567.59;;;11.79;83.53
23733;BME280;12047;53.450;-2.286;2023-03-02T11:54:00;102572.34;;;12.14;85.07
23733;BME280;12047;53.450;-2.286;2023-03-02T11:59:04;102584.13;;;12.62;83.65
23733;BME280;12047;53.450;-2.286;2023-03-02T12:04:09;102577.13;;;13.48;81.42
23733;BME280;12047;53.450;-2.286;2023-03-02T12:09:27;102577.41;;;12.69;82.35
23733;BME280;12047;53.450;-2.286;2023-03-02T12:14:38;102572.13;;;12.82;81.78
23733;BME280;12047;53.450;-2.286;2023-03-02T12:19:41;102578.38;;;13.06;81.57
23733;BME280;12047;53.450;-2.286;2023-03-02T12:24:44;102579.44;;;13.04;81.79
23733;BME280;12047;53.450;-2.286;2023-03-02T12:29:48;102574.88;;;13.42;79.51
23733;BME280;12047;53.450;-2.286;2023-03-02T12:35:02;102576.50;;;12.18;80.23
23733;BME280;12047;53.450;-2.286;2023-03-02T12:40:30;102578.56;;;12.40;82.01
23733;BME280;12047;53.450;-2.286;2023-03-02T12:45:53;102567.84;;;12.54;81.72
23733;BME280;12047;53.450;-2.286;2023-03-02T12:51:00;102571.25;;;12.81;80.16
23733;BME280;12047;53.450;-2.286;2023-03-02T12:56:01;102577.84;;;12.63;79.73
23733;BME280;12047;53.450;-2.286;2023-03-02T13:01:02;102569.53;;;13.06;79.01
23733;BME280;12047;53.450;-2.286;2023-03-02T13:06:11;102572.13;;;12.82;79.18
23733;BME280;12047;53.450;-2.286;2023-03-02T13:11:20;102564.22;;;13.06;78.47
23733;BME280;12047;53.450;-2.286;2023-03-02T13:16:27;102560.84;;;13.64;75.89
23733;BME280;12047;53.450;-2.286;2023-03-02T13:21:33;102560.13;;;13.13;74.70
23733;BME280;12047;53.450;-2.286;2023-03-02T13:26:35;102551.63;;;14.62;74.45
23733;BME280;12047;53.450;-2.286;2023-03-02T13:31:39;102561.16;;;13.72;75.33
23733;BME280;12047;53.450;-2.286;2023-03-02T13:36:40;102540.66;;;13.96;74.79
23733;BME280;12047;53.450;-2.286;2023-03-02T13:41:57;102546.75;;;14.45;75.23
23733;BME280;12047;53.450;-2.286;2023-03-02T13:46:58;102546.56;;;13.89;74.47
23733;BME280;12047;53.450;-2.286;2023-03-02T13:52:15;102537.31;;;14.17;75.86
23733;BME280;12047;53.450;-2.286;2023-03-02T13:57:20;102550.38;;;13.74;76.66
23733;BME280;12047;53.450;-2.286;2023-03-02T14:02:25;102540.50;;;12.65;76.36
23733;BME280;12047;53.450;-2.286;2023-03-02T14:07:26;102552.63;;;13.91;74.19
23733;BME280;12047;53.450;-2.286;2023-03-02T14:12:29;102532.84;;;14.52;73.44
23733;BME280;12047;53.450;-2.286;2023-03-02T14:17:30;102540.72;;;14.19;73.23
23733;BME280;12047;53.450;-2.286;2023-03-02T14:22:31;102532.28;;;14.36;72.27
23733;BME280;12047;53.450;-2.286;2023-03-02T14:27:32;102536.09;;;14.45;72.33
23733;BME280;12047;53.450;-2.286;2023-03-02T14:32:33;102534.72;;;13.93;73.49
23733;BME280;12047;53.450;-2.286;2023-03-02T14:37:34;102538.97;;;13.24;74.00
23733;BME280;12047;53.450;-2.286;2023-03-02T14:42:35;102535.03;;;13.04;73.79
23733;BME280;12047;53.450;-2.286;2023-03-02T14:47:35;102526.09;;;13.05;73.00
23733;BME280;12047;53.450;-2.286;2023-03-02T14:52:50;102513.47;;;13.80;71.05
23733;BME280;12047;53.450;-2.286;2023-03-02T14:57:59;102513.00;;;13.02;72.60
23733;BME280;12047;53.450;-2.286;2023-03-02T15:03:02;102498.63;;;14.00;73.54
23733;BME280;12047;53.450;-2.286;2023-03-02T15:08:03;102495.03;;;14.12;72.52
23733;BME280;12047;53.450;-2.286;2023-03-02T15:13:03;102489.84;;;13.52;73.17
23733;BME280;12047;53.450;-2.286;2023-03-02T15:18:04;102487.47;;;13.00;74.33
23733;BME280;12047;53.450;-2.286;2023-03-02T15:23:04;102484.16;;;14.26;72.09
23733;BME280;12047;53.450;-2.286;2023-03-02T15:28:06;102487.22;;;14.44;72.48
23733;BME280;12047;53.450;-2.286;2023-03-02T15:33:06;102472.28;;;13.49;74.12
23733;BME280;12047;53.450;-2.286;2023-03-02T15:38:07;102478.34;;;13.86;74.01
23733;BME280;12047;53.450;-2.286;2023-03-02T15:43:07;102464.00;;;13.65;74.12
23733;BME280;12047;53.450;-2.286;2023-03-02T15:48:08;102472.06;;;13.52;75.24
23733;BME280;12047;53.450;-2.286;2023-03-02T15:53:12;102481.63;;;12.94;76.77
23733;BME280;12047;53.450;-2.286;2023-03-02T15:58:13;102491.88;;;13.12;76.94
23733;BME280;12047;53.450;-2.286;2023-03-02T16:03:14;102479.88;;;14.02;74.70
23733;BME280;12047;53.450;-2.286;2023-03-02T16:08:15;102487.47;;;13.00;74.69
23733;BME280;12047;53.450;-2.286;2023-03-02T16:13:15;102498.78;;;12.65;76.00
23733;BME280;12047;53.450;-2.286;2023-03-02T16:18:16;102496.91;;;12.42;77.07
23733;BME280;12047;53.450;-2.286;2023-03-02T16:23:17;102498.28;;;12.22;77.14
23733;BME280;12047;53.450;-2.286;2023-03-02T16:28:18;102508.25;;;12.69;76.25
23733;BME280;12047;53.450;-2.286;2023-03-02T16:33:19;102500.91;;;12.85;75.47
23733;BME280;12047;53.450;-2.286;2023-03-02T16:38:20;102514.97;;;12.75;76.01
23733;BME280;12047;53.450;-2.286;2023-03-02T16:43:23;102505.19;;;13.12;75.26
23733;BME280;12047;53.450;-2.286;2023-03-02T16:48:24;102513.38;;;12.72;76.54
23733;BME280;12047;53.450;-2.286;2023-03-02T16:53:25;102512.91;;;12.91;76.63
23733;BME280;12047;53.450;-2.286;2023-03-02T16:58:25;102522.47;;;13.06;77.37
23733;BME280;12047;53.450;-2.286;2023-03-02T17:03:26;102521.34;;;12.09;78.67
23733;BME280;12047;53.450;-2.286;2023-03-02T17:08:27;102516.34;;;12.68;78.71
23733;BME280;12047;53.450;-2.286;2023-03-02T17:13:27;102531.38;;;12.56;79.59
23733;BME280;12047;53.450;-2.286;2023-03-02T17:18:28;102532.31;;;12.80;79.97
23733;BME280;12047;53.450;-2.286;2023-03-02T17:23:32;102534.00;;;12.43;80.47
23733;BME280;12047;53.450;-2.286;2023-03-02T17:28:33;102538.66;;;12.02;81.29
23733;BME280;12047;53.450;-2.286;2023-03-02T17:33:36;102545.50;;;11.91;80.07
23733;BME280;12047;53.450;-2.286;2023-03-02T17:38:37;102548.47;;;11.19;81.46
23733;BME280;12047;53.450;-2.286;2023-03-02T17:43:39;102554.75;;;11.59;79.92
23733;BME280;12047;53.450;-2.286;2023-03-02T17:48:41;102563.72;;;11.98;77.91
23733;BME280;12047;53.450;-2.286;2023-03-02T17:53:44;102570.72;;;11.86;79.99
23733;BME280;12047;53.450;-2.286;2023-03-02T17:58:45;102568.81;;;12.01;79.29
23733;BME280;12047;53.450;-2.286;2023-03-02T18:03:45;102580.91;;;11.92;80.36
23733;BME280;12047;53.450;-2.286;2023-03-02T18:08:47;102577.09;;;11.14;82.79
23733;BME280;12047;53.450;-2.286;2023-03-02T18:13:48;102581.38;;;10.88;82.78
23733;BME280;12047;53.450;-2.286;2023-03-02T18:18:49;102594.25;;;12.05;79.83
23733;BME280;12047;53.450;-2.286;2023-03-02T18:23:50;102608.94;;;11.28;81.62
23733;BME280;12047;53.450;-2.286;2023-03-02T18:28:50;102606.00;;;11.33;81.62
23733;BME280;12047;53.450;-2.286;2023-03-02T18:33:52;102618.44;;;12.27;79.09
23733;BME280;12047;53.450;-2.286;2023-03-02T18:38:53;102604.25;;;11.46;79.30
23733;BME280;12047;53.450;-2.286;2023-03-02T18:43:53;102617.44;;;10.90;80.17
23733;BME280;12047;53.450;-2.286;2023-03-02T18:48:54;102620.97;;;11.19;79.78
23733;BME280;12047;53.450;-2.286;2023-03-02T18:53:55;102620.06;;;12.03;78.44
23733;BME280;12047;53.450;-2.286;2023-03-02T18:58:56;102625.69;;;11.14;79.92
23733;BME280;12047;53.450;-2.286;2023-03-02T19:03:57;102627.78;;;11.23;80.48
23733;BME280;12047;53.450;-2.286;2023-03-02T19:08:59;102625.78;;;11.55;80.04
23733;BME280;12047;53.450;-2.286;2023-03-02T19:14:00;102633.28;;;11.06;81.39
23733;BME280;12047;53.450;-2.286;2023-03-02T19:19:01;102633.25;;;11.49;81.13
23733;BME280;12047;53.450;-2.286;2023-03-02T19:24:01;102631.28;;;11.24;81.71
23733;BME280;12047;53.450;-2.286;2023-03-02T19:29:02;102635.63;;;11.39;80.70
23733;BME280;12047;53.450;-2.286;2023-03-02T19:34:03;102639.16;;;11.95;79.79
23733;BME280;12047;53.450;-2.286;2023-03-02T19:39:05;102636.28;;;11.57;80.33
23733;BME280;12047;53.450;-2.286;2023-03-02T19:44:05;102650.03;;;11.78;79.71
23733;BME280;12047;53.450;-2.286;2023-03-02T19:49:09;102643.16;;;11.04;81.86
23733;BME280;12047;53.450;-2.286;2023-03-02T19:54:10;102652.16;;;11.02;82.86
23733;BME280;12047;53.450;-2.286;2023-03-02T19:59:11;102658.22;;;11.32;82.44
23733;BME280;12047;53.450;-2.286;2023-03-02T20:04:11;102653.94;;;11.99;80.52
23733;BME280;12047;53.450;-2.286;2023-03-02T20:09:14;102663.88;;;11.83;81.05
23733;BME280;12047;53.450;-2.286;2023-03-02T20:14:19;102666.91;;;11.77;79.14
23733;BME280;12047;53.450;-2.286;2023-03-02T20:19:19;102668.28;;;11.13;81.51
23733;BME280;12047;53.450;-2.286;2023-03-02T20:24:22;102676.47;;;10.94;82.84
23733;BME280;12047;53.450;-2.286;2023-03-02T20:29:22;102677.72;;;11.17;82.12
23733;BME280;12047;53.450;-2.286;2023-03-02T20:34:23;102677.34;;;11.51;81.11
23733;BME280;12047;53.450;-2.286;2023-03-02T20:39:28;102677.72;;;11.45;81.76
23733;BME280;12047;53.450;-2.286;2023-03-02T20:44:29;102674.78;;;11.50;81.51
23733;BME280;12047;53.450;-2.286;2023-03-02T20:49:34;102681.69;;;11.67;81.68
23733;BME280;12047;53.450;-2.286;2023-03-02T20:54:39;102680.78;;;11.25;81.90
23733;BME280;12047;53.450;-2.286;2023-03-02T20:59:40;102684.50;;;11.37;82.78
23733;BME280;12047;53.450;-2.286;2023-03-02T21:04:41;102689.47;;;11.41;83.32
23733;BME280;12047;53.450;-2.286;2023-03-02T21:09:43;102696.03;;;11.21;83.30
23733;BME280;12047;53.450;-2.286;2023-03-02T21:14:44;102706.91;;;11.17;83.46
23733;BME280;12047;53.450;-2.286;2023-03-02T21:19:48;102700.22;;;11.11;83.88
23733;BME280;12047;53.450;-2.286;2023-03-02T21:24:49;102704.56;;;11.27;83.32
23733;BME280;12047;53.450;-2.286;2023-03-02T21:29:52;102705.22;;;11.16;84.79
23733;BME280;12047;53.450;-2.286;2023-03-02T21:34:54;102707.59;;;11.20;85.10
23733;BME280;12047;53.450;-2.286;2023-03-02T21:39:55;102698.53;;;10.80;86.20
23733;BME280;12047;53.450;-2.286;2023-03-02T21:45:00;102699.59;;;11.63;84.80
23733;BME280;12047;53.450;-2.286;2023-03-02T21:50:02;102704.47;;;11.28;84.67
23733;BME280;12047;53.450;-2.286;2023-03-02T21:55:06;102706.72;;;11.06;84.49
23733;BME280;12047;53.450;-2.286;2023-03-02T22:00:08;102704.84;;;11.08;84.58
23733;BME280;12047;53.450;-2.286;2023-03-02T22:05:09;102705.28;;;11.14;84.62
23733;BME280;12047;53.450;-2.286;2023-03-02T22:15:22;102703.44;;;12.14;83.32
23733;BME280;12047;53.450;-2.286;2023-03-02T22:20:23;102694.13;;;11.23;84.83
23733;BME280;12047;53.450;-2.286;2023-03-02T22:25:24;102697.28;;;11.30;84.65
23733;BME280;12047;53.450;-2.286;2023-03-02T22:30:26;102703.25;;;11.34;84.94
23733;BME280;12047;53.450;-2.286;2023-03-02T22:35:27;102698.47;;;11.39;83.18
23733;BME280;12047;53.450;-2.286;2023-03-02T22:40:34;102699.44;;;11.52;83.83
23733;BME280;12047;53.450;-2.286;2023-03-02T22:45:36;102704.00;;;11.50;83.78
23733;BME280;12047;53.450;-2.286;2023-03-02T22:50:37;102712.50;;;10.68;83.65
23733;BME280;12047;53.450;-2.286;2023-03-02T22:55:40;102703.91;;;11.23;83.22
23733;BME280;12047;53.450;-2.286;2023-03-02T23:00:41;102703.34;;;11.32;84.04
23733;BME280;12047;53.450;-2.286;2023-03-02T23:05:42;102713.78;;;10.91;84.16
23733;BME280;12047;53.450;-2.286;2023-03-02T23:10:43;102709.50;;;9.97;84.87
23733;BME280;12047;53.450;-2.286;2023-03-02T23:15:45;102712.22;;;10.59;84.47
23733;BME280;12047;53.450;-2.286;2023-03-02T23:20:46;102712.56;;;10.82;83.68
23733;BME280;12047;53.450;-2.286;2023-03-02T23:25:47;102717.25;;;10.47;84.52
23733;BME280;12047;53.450;-2.286;2023-03-02T23:30:48;102716.84;;;10.85;84.51
23733;BME280;12047;53.450;-2.286;2023-03-02T23:35:49;102709.88;;;10.22;85.12
23733;BME280;12047;53.450;-2.286;2023-03-02T23:40:49;102707.09;;;10.40;84.63
23733;BME280;12047;53.450;-2.286;2023-03-02T23:45:50;102712.81;;;11.08;83.44
23733;BME280;12047;53.450;-2.286;2023-03-02T23:50:51;102717.59;;;10.41;84.02
23733;BME280;12047;53.450;-2.286;2023-03-02T23:55:53;102716.41;;;11.07;82.53
